createdAt,value
2018-07-03T00:01:28.460Z,18.30
2018-07-03T00:03:56.858Z,18.30
2018-07-03T00:06:25.258Z,18.20
2018-07-03T00:08:53.590Z,18.20
2018-07-03T00:11:21.951Z,18.20
2018-07-03T00:13:50.369Z,18.20
2018-07-03T00:16:24.028Z,18.20
2018-07-03T00:18:52.376Z,18.10
2018-07-03T00:21:20.854Z,18.10
2018-07-03T00:23:49.286Z,18.00
2018-07-03T00:26:17.628Z,18.00
2018-07-03T00:28:46.085Z,17.90
2018-07-03T00:31:14.529Z,17.90
2018-07-03T00:33:43.467Z,17.90
2018-07-03T00:36:12.085Z,17.80
2018-07-03T00:38:40.448Z,17.80
2018-07-03T00:41:08.924Z,17.70
2018-07-03T00:43:37.239Z,17.70
2018-07-03T00:46:05.578Z,17.70
2018-07-03T00:48:34.392Z,17.70
2018-07-03T00:51:03.050Z,17.70
2018-07-03T00:53:31.344Z,17.70
2018-07-03T00:55:59.641Z,17.60
2018-07-03T00:58:28.345Z,17.60
2018-07-03T01:00:56.719Z,17.60
2018-07-03T01:03:25.124Z,17.50
2018-07-03T01:05:53.816Z,17.50
2018-07-03T01:08:22.233Z,17.50
2018-07-03T01:10:50.817Z,17.50
2018-07-03T01:13:19.207Z,17.40
2018-07-03T01:15:47.533Z,17.30
2018-07-03T01:18:16.161Z,17.30
2018-07-03T01:20:44.460Z,17.30
2018-07-03T01:23:12.959Z,17.30
2018-07-03T01:25:41.368Z,17.30
2018-07-03T01:28:09.890Z,17.30
2018-07-03T01:30:38.208Z,17.30
2018-07-03T01:33:06.568Z,17.30
2018-07-03T01:35:41.037Z,17.30
2018-07-03T01:38:10.621Z,17.30
2018-07-03T01:40:39.191Z,17.20
2018-07-03T01:43:07.676Z,17.20
2018-07-03T01:45:36.282Z,17.20
2018-07-03T01:48:04.630Z,17.20
2018-07-03T01:50:33.219Z,17.20
2018-07-03T01:53:01.677Z,17.10
2018-07-03T01:55:30.000Z,17.10
2018-07-03T01:57:58.406Z,17.10
2018-07-03T02:00:26.924Z,17.10
2018-07-03T02:02:55.497Z,17.10
2018-07-03T02:05:24.306Z,17.00
2018-07-03T02:07:54.313Z,17.00
2018-07-03T02:10:22.947Z,17.00
2018-07-03T02:12:51.267Z,17.00
2018-07-03T02:15:19.586Z,16.90
2018-07-03T02:17:48.063Z,16.90
2018-07-03T02:20:16.369Z,16.90
2018-07-03T02:25:13.357Z,16.90
2018-07-03T02:27:41.705Z,16.90
2018-07-03T02:30:10.045Z,16.90
2018-07-03T02:32:38.325Z,16.80
2018-07-03T02:35:06.691Z,16.80
2018-07-03T02:37:35.123Z,16.80
2018-07-03T02:40:03.490Z,16.80
2018-07-03T02:42:32.159Z,16.80
2018-07-03T02:45:00.471Z,16.70
2018-07-03T02:47:29.032Z,16.70
2018-07-03T02:49:57.644Z,16.70
2018-07-03T02:52:26.031Z,16.70
2018-07-03T02:54:54.438Z,16.70
2018-07-03T02:57:22.745Z,16.60
2018-07-03T02:59:51.056Z,16.60
2018-07-03T03:02:19.402Z,16.60
2018-07-03T03:04:47.779Z,16.60
2018-07-03T03:07:16.095Z,16.60
2018-07-03T03:09:44.445Z,16.60
2018-07-03T03:12:12.714Z,16.60
2018-07-03T03:14:41.071Z,16.50
2018-07-03T03:17:09.499Z,16.50
2018-07-03T03:29:41.835Z,16.60
2018-07-03T03:32:10.313Z,16.70
2018-07-03T03:34:38.794Z,16.70
2018-07-03T03:37:07.241Z,16.70
2018-07-03T03:39:36.462Z,16.70
2018-07-03T03:42:04.884Z,16.60
2018-07-03T03:44:33.544Z,16.50
2018-07-03T03:47:02.259Z,16.60
2018-07-03T03:49:30.801Z,16.60
2018-07-03T03:51:59.261Z,16.60
2018-07-03T03:54:27.632Z,16.70
2018-07-03T03:56:56.177Z,16.80
2018-07-03T03:59:24.805Z,16.80
2018-07-03T04:01:53.150Z,16.80
2018-07-03T04:04:21.592Z,16.80
2018-07-03T04:06:50.295Z,16.90
2018-07-03T04:09:18.871Z,16.90
2018-07-03T04:11:47.569Z,16.90
2018-07-03T04:14:16.139Z,16.80
2018-07-03T04:16:44.779Z,16.80
2018-07-03T04:19:13.157Z,16.90
2018-07-03T04:21:41.516Z,16.80
2018-07-03T04:24:09.934Z,16.80
2018-07-03T04:26:38.328Z,16.80
2018-07-03T04:29:06.895Z,16.90
2018-07-03T04:31:35.464Z,16.90
2018-07-03T04:34:06.993Z,16.80
2018-07-03T04:36:35.727Z,16.80
2018-07-03T04:39:06.903Z,16.90
2018-07-03T04:41:35.344Z,16.90
2018-07-03T04:44:04.042Z,17.00
2018-07-03T04:46:32.447Z,17.00
2018-07-03T04:49:00.877Z,17.00
2018-07-03T04:51:29.689Z,17.10
2018-07-03T04:53:58.247Z,17.10
2018-07-03T04:56:26.859Z,17.20
2018-07-03T04:58:55.792Z,17.20
2018-07-03T05:01:24.358Z,17.30
2018-07-03T05:03:52.842Z,17.30
2018-07-03T05:06:21.204Z,17.40
2018-07-03T05:08:49.626Z,17.40
2018-07-03T05:11:18.597Z,17.40
2018-07-03T05:13:47.646Z,17.50
2018-07-03T05:16:16.531Z,17.60
2018-07-03T05:18:44.958Z,17.70
2018-07-03T05:21:13.341Z,17.80
2018-07-03T05:23:41.699Z,17.80
2018-07-03T05:26:10.249Z,17.90
2018-07-03T05:28:38.809Z,18.00
2018-07-03T05:31:08.364Z,18.10
2018-07-03T05:33:36.829Z,18.20
2018-07-03T05:36:05.387Z,18.30
2018-07-03T05:38:33.803Z,18.50
2018-07-03T05:41:02.217Z,18.50
2018-07-03T05:43:31.969Z,18.60
2018-07-03T05:46:00.471Z,18.60
2018-07-03T05:48:28.887Z,18.60
2018-07-03T05:51:21.206Z,18.50
2018-07-03T05:53:49.606Z,18.50
2018-07-03T05:56:18.302Z,18.60
2018-07-03T05:58:47.007Z,18.60
2018-07-03T06:01:15.352Z,18.50
2018-07-03T06:03:43.837Z,18.60
2018-07-03T06:06:21.681Z,18.60
2018-07-03T06:08:50.351Z,18.70
2018-07-03T06:11:19.325Z,18.70
2018-07-03T06:13:47.968Z,18.80
2018-07-03T06:16:16.916Z,18.90
2018-07-03T06:18:45.383Z,19.00
2018-07-03T06:21:14.128Z,19.10
2018-07-03T06:23:42.557Z,19.20
2018-07-03T06:26:12.044Z,19.30
2018-07-03T06:28:41.915Z,19.40
2018-07-03T06:31:10.555Z,19.50
2018-07-03T06:33:39.115Z,19.60
2018-07-03T06:36:08.334Z,19.70
2018-07-03T06:38:36.933Z,19.70
2018-07-03T06:41:05.787Z,19.80
2018-07-03T06:43:34.891Z,19.80
2018-07-03T06:46:03.685Z,19.90
2018-07-03T06:48:32.341Z,20.00
2018-07-03T06:51:00.979Z,20.20
2018-07-03T06:53:31.977Z,20.30
2018-07-03T06:57:30.111Z,20.50
2018-07-03T06:59:58.491Z,20.60
2018-07-03T07:02:27.017Z,20.80
2018-07-03T07:04:55.643Z,20.80
2018-07-03T07:07:24.108Z,20.80
2018-07-03T07:09:53.401Z,20.80
2018-07-03T07:12:24.795Z,20.80
2018-07-03T07:14:56.772Z,20.90
2018-07-03T07:17:25.762Z,21.00
2018-07-03T07:19:57.968Z,21.10
2018-07-03T07:22:26.778Z,21.20
2018-07-03T07:24:55.311Z,21.30
2018-07-03T07:27:23.720Z,21.40
2018-07-03T07:29:52.376Z,21.50
2018-07-03T07:32:20.827Z,21.70
2018-07-03T07:34:49.447Z,21.90
2018-07-03T07:37:19.624Z,22.20
2018-07-03T07:39:48.133Z,22.50
2018-07-03T07:42:16.573Z,22.60
2018-07-03T07:44:45.213Z,22.60
2018-07-03T07:47:13.807Z,22.60
2018-07-03T07:49:42.773Z,22.60
2018-07-03T07:52:11.668Z,22.70
2018-07-03T07:54:40.052Z,22.70
2018-07-03T07:57:08.568Z,22.70
2018-07-03T07:59:37.538Z,22.90
2018-07-03T08:02:06.633Z,23.00
2018-07-03T08:04:35.588Z,23.00
2018-07-03T08:07:04.026Z,23.10
2018-07-03T08:09:33.058Z,23.30
2018-07-03T08:12:03.810Z,23.60
2018-07-03T08:14:32.558Z,23.80
2018-07-03T08:17:01.570Z,23.80
2018-07-03T08:19:30.537Z,24.10
2018-07-03T08:21:59.465Z,24.20
2018-07-03T08:24:28.417Z,24.20
2018-07-03T08:26:57.478Z,24.20
2018-07-03T08:29:26.527Z,24.40
2018-07-03T08:31:55.603Z,24.40
2018-07-03T08:34:26.393Z,24.40
2018-07-03T08:36:55.471Z,24.50
2018-07-03T08:39:24.307Z,24.30
2018-07-03T08:41:53.079Z,24.60
2018-07-03T08:44:21.838Z,24.60
2018-07-03T08:46:50.689Z,24.80
2018-07-03T08:49:19.625Z,24.80
2018-07-03T08:51:48.740Z,24.80
2018-07-03T08:54:17.657Z,24.90
2018-07-03T08:56:48.692Z,24.90
2018-07-03T08:59:22.272Z,24.70
2018-07-03T09:01:51.305Z,24.60
2018-07-03T09:04:20.289Z,24.60
2018-07-03T09:06:48.991Z,24.80
2018-07-03T09:09:17.829Z,24.80
2018-07-03T09:11:46.519Z,24.90
2018-07-03T09:14:15.610Z,24.80
2018-07-03T09:16:44.310Z,24.90
2018-07-03T09:19:13.377Z,24.80
2018-07-03T09:21:42.374Z,24.90
2018-07-03T09:24:11.179Z,25.00
2018-07-03T09:26:39.840Z,25.40
2018-07-03T09:29:08.592Z,25.50
2018-07-03T09:31:37.542Z,25.60
2018-07-03T09:34:06.662Z,25.90
2018-07-03T09:36:35.740Z,26.00
2018-07-03T09:39:07.695Z,26.20
2018-07-03T09:41:36.766Z,26.40
2018-07-03T09:44:05.529Z,26.40
2018-07-03T09:46:35.498Z,26.30
2018-07-03T09:49:08.050Z,26.30
2018-07-03T09:51:36.961Z,26.20
2018-07-03T09:54:05.900Z,26.10
2018-07-03T09:56:34.715Z,26.10
2018-07-03T09:59:03.580Z,26.10
2018-07-03T10:01:32.522Z,26.00
2018-07-03T10:04:01.620Z,25.90
2018-07-03T10:06:30.726Z,25.90
2018-07-03T10:09:14.184Z,25.80
2018-07-03T10:11:42.861Z,25.80
2018-07-03T10:14:11.689Z,25.80
2018-07-03T10:16:40.289Z,25.60
2018-07-03T10:19:09.517Z,25.60
2018-07-03T10:21:38.633Z,25.40
2018-07-03T10:24:07.590Z,25.40
2018-07-03T10:26:36.687Z,25.40
2018-07-03T10:29:05.535Z,25.50
2018-07-03T10:31:34.589Z,25.80
2018-07-03T10:34:03.687Z,25.90
2018-07-03T10:36:32.497Z,25.90
2018-07-03T10:39:02.095Z,26.10
2018-07-03T10:41:30.881Z,26.20
2018-07-03T10:43:59.677Z,26.20
2018-07-03T10:46:28.717Z,26.10
2018-07-03T10:48:57.861Z,25.90
2018-07-03T10:51:29.548Z,25.90
2018-07-03T10:53:58.692Z,26.00
2018-07-03T10:56:27.453Z,26.10
2018-07-03T10:58:56.557Z,26.10
2018-07-03T11:01:25.560Z,26.00
2018-07-03T11:03:54.556Z,26.20
2018-07-03T11:06:24.219Z,26.40
2018-07-03T11:08:53.019Z,26.50
2018-07-03T11:11:21.782Z,26.40
2018-07-03T11:13:50.598Z,26.40
2018-07-03T11:16:19.896Z,26.30
2018-07-03T11:18:48.895Z,26.10
2018-07-03T11:21:17.627Z,26.20
2018-07-03T11:23:46.587Z,26.00
2018-07-03T11:26:15.658Z,26.10
2018-07-03T11:28:44.680Z,26.00
2018-07-03T11:31:13.732Z,25.80
2018-07-03T11:33:42.429Z,25.70
2018-07-03T11:36:11.674Z,25.60
2018-07-03T11:38:41.098Z,25.60
2018-07-03T11:41:09.841Z,25.80
2018-07-03T11:43:38.281Z,25.90
2018-07-03T11:46:07.281Z,25.90
2018-07-03T11:48:37.165Z,26.30
2018-07-03T11:51:06.059Z,26.50
2018-07-03T11:53:34.843Z,26.60
2018-07-03T11:56:03.704Z,26.80
2018-07-03T11:58:32.341Z,27.00
2018-07-03T12:01:01.267Z,27.00
2018-07-03T12:03:30.006Z,27.30
2018-07-03T12:05:58.887Z,27.40
2018-07-03T12:08:27.712Z,27.40
2018-07-03T12:10:56.452Z,27.40
2018-07-03T12:13:25.626Z,27.10
2018-07-03T12:15:54.850Z,26.70
2018-07-03T12:18:28.887Z,26.60
2018-07-03T12:20:57.689Z,26.70
2018-07-03T12:23:29.784Z,26.80
2018-07-03T12:25:59.874Z,26.90
2018-07-03T12:28:28.407Z,26.50
2018-07-03T12:30:57.367Z,26.30
2018-07-03T12:33:26.061Z,25.80
2018-07-03T12:35:54.746Z,26.00
2018-07-03T12:38:23.463Z,26.30
2018-07-03T12:40:52.418Z,26.60
2018-07-03T12:43:21.738Z,26.80
2018-07-03T12:45:50.514Z,26.80
2018-07-03T12:48:19.558Z,26.90
2018-07-03T12:50:48.540Z,26.80
2018-07-03T12:53:17.648Z,26.90
2018-07-03T12:55:46.692Z,27.10
2018-07-03T12:58:15.888Z,27.40
2018-07-03T13:00:45.000Z,27.70
2018-07-03T13:03:13.764Z,28.00
2018-07-03T13:05:42.668Z,28.10
2018-07-03T13:08:11.749Z,27.90
2018-07-03T13:10:40.413Z,27.50
2018-07-03T13:13:09.463Z,27.20
2018-07-03T13:15:38.172Z,27.10
2018-07-03T13:18:12.342Z,27.10
2018-07-03T13:20:41.306Z,27.10
2018-07-03T13:23:10.577Z,27.30
2018-07-03T13:25:39.221Z,27.60
2018-07-03T13:28:08.641Z,28.00
2018-07-03T13:30:37.654Z,28.20
2018-07-03T13:33:06.744Z,28.30
2018-07-03T13:35:37.068Z,28.50
2018-07-03T13:38:06.692Z,28.80
2018-07-03T13:40:35.727Z,29.00
2018-07-03T13:43:05.550Z,29.30
2018-07-03T13:45:34.314Z,29.00
2018-07-03T13:48:03.424Z,29.20
2018-07-03T13:50:32.615Z,29.00
2018-07-03T13:53:01.697Z,29.20
2018-07-03T13:55:31.924Z,29.50
2018-07-03T13:58:02.195Z,29.90
2018-07-03T14:00:31.223Z,30.30
2018-07-03T14:02:59.943Z,30.50
2018-07-03T14:05:28.589Z,30.30
2018-07-03T14:07:57.693Z,29.80
2018-07-03T14:10:26.964Z,30.00
2018-07-03T14:12:56.076Z,30.30
2018-07-03T14:15:24.871Z,30.70
2018-07-03T14:17:53.993Z,30.80
2018-07-03T14:20:22.724Z,30.90
2018-07-03T14:22:51.532Z,30.80
2018-07-03T14:25:20.753Z,30.80
2018-07-03T14:27:49.895Z,31.10
2018-07-03T14:30:18.750Z,31.20
2018-07-03T14:32:47.736Z,31.40
2018-07-03T14:35:16.568Z,31.70
2018-07-03T14:37:46.174Z,31.40
2018-07-03T14:40:19.124Z,31.10
2018-07-03T14:42:48.335Z,31.10
2018-07-03T14:45:17.446Z,31.20
2018-07-03T14:47:46.470Z,31.20
2018-07-03T14:50:15.582Z,30.90
2018-07-03T14:52:46.322Z,30.70
2018-07-03T14:55:15.608Z,30.80
2018-07-03T14:57:45.104Z,30.80
2018-07-03T15:00:14.745Z,30.50
2018-07-03T15:02:44.116Z,30.50
2018-07-03T15:05:14.132Z,30.40
2018-07-03T15:07:43.932Z,30.10
2018-07-03T15:10:15.771Z,29.60
2018-07-03T15:12:44.976Z,29.50
2018-07-03T15:15:13.860Z,29.50
2018-07-03T15:17:42.713Z,29.30
2018-07-03T15:20:11.867Z,29.20
2018-07-03T15:22:40.716Z,28.90
2018-07-03T15:25:09.992Z,28.70
2018-07-03T15:27:39.014Z,28.30
2018-07-03T15:30:07.867Z,28.20
2018-07-03T15:32:36.738Z,28.00
2018-07-03T15:35:05.956Z,27.80
2018-07-03T15:37:34.683Z,27.70
2018-07-03T15:40:03.796Z,27.60
2018-07-03T15:42:34.213Z,27.50
2018-07-03T15:45:09.820Z,27.30
2018-07-03T15:47:38.766Z,27.00
2018-07-03T15:50:09.303Z,26.80
2018-07-03T15:52:38.024Z,26.60
2018-07-03T15:55:07.686Z,26.70
2018-07-03T15:57:36.728Z,26.90
2018-07-03T16:00:07.897Z,26.70
2018-07-03T16:02:36.705Z,26.60
2018-07-03T16:05:18.274Z,26.60
2018-07-03T16:08:01.479Z,26.70
2018-07-03T16:10:29.975Z,26.70
2018-07-03T16:12:59.046Z,26.70
2018-07-03T16:15:27.836Z,26.60
2018-07-03T16:17:57.531Z,26.70
2018-07-03T16:20:32.122Z,26.40
2018-07-03T16:23:01.037Z,26.30
2018-07-03T16:25:29.753Z,26.10
2018-07-03T16:27:59.342Z,26.00
2018-07-03T16:30:28.116Z,26.10
2018-07-03T16:32:56.964Z,26.20
2018-07-03T16:35:26.280Z,26.40
2018-07-03T16:37:55.872Z,26.40
2018-07-03T16:40:25.276Z,26.20
2018-07-03T16:42:54.434Z,26.50
2018-07-03T16:45:24.189Z,26.70
2018-07-03T16:47:58.702Z,26.70
2018-07-03T16:50:27.823Z,26.70
2018-07-03T16:52:57.513Z,26.50
2018-07-03T16:55:27.091Z,26.60
2018-07-03T16:57:56.994Z,26.60
2018-07-03T17:00:28.106Z,26.30
2018-07-03T17:02:58.096Z,25.90
2018-07-03T17:05:27.563Z,25.70
2018-07-03T17:07:56.934Z,25.50
2018-07-03T17:10:26.415Z,25.60
2018-07-03T17:12:56.485Z,25.60
2018-07-03T17:15:25.664Z,25.60
2018-07-03T17:17:55.459Z,25.70
2018-07-03T17:20:25.796Z,25.70
2018-07-03T17:22:57.078Z,25.60
2018-07-03T17:25:27.193Z,25.60
2018-07-03T17:27:56.386Z,25.50
2018-07-03T17:30:25.487Z,25.40
2018-07-03T17:32:54.438Z,25.30
2018-07-03T17:35:24.341Z,25.50
2018-07-03T17:37:53.327Z,25.70
2018-07-03T17:40:33.711Z,26.30
2018-07-03T17:44:19.403Z,26.00
2018-07-03T17:46:49.026Z,25.90
2018-07-03T17:49:18.216Z,25.70
2018-07-03T17:51:48.350Z,25.50
2018-07-03T17:54:17.933Z,25.70
2018-07-03T17:56:47.085Z,26.10
2018-07-03T17:59:15.946Z,26.30
2018-07-03T18:01:44.961Z,26.30
2018-07-03T18:04:14.218Z,26.30
2018-07-03T18:06:43.345Z,26.30
2018-07-03T18:09:14.061Z,26.40
2018-07-03T18:11:43.470Z,26.50
2018-07-03T18:14:12.433Z,26.60
2018-07-03T18:16:40.981Z,26.50
2018-07-03T18:19:15.310Z,26.10
2018-07-03T18:21:44.958Z,26.00
2018-07-03T18:24:14.020Z,25.70
2018-07-03T18:26:42.764Z,25.60
2018-07-03T18:29:11.924Z,25.40
2018-07-03T18:31:40.882Z,25.10
2018-07-03T18:34:09.893Z,25.00
2018-07-03T18:36:39.327Z,24.80
2018-07-03T18:39:09.173Z,24.70
2018-07-03T18:41:38.149Z,24.60
2018-07-03T18:44:09.399Z,24.50
2018-07-03T18:46:38.545Z,24.40
2018-07-03T18:49:08.075Z,24.20
2018-07-03T18:51:37.986Z,24.10
2018-07-03T18:54:07.786Z,24.00
2018-07-03T18:56:39.546Z,23.90
2018-07-03T18:59:08.582Z,23.80
2018-07-03T19:01:38.295Z,23.70
2018-07-03T19:04:08.189Z,23.60
2018-07-03T19:06:43.942Z,23.60
2018-07-03T19:09:15.016Z,23.60
2018-07-03T19:11:54.242Z,23.50
2018-07-03T19:14:26.895Z,23.40
2018-07-03T19:16:58.465Z,23.40
2018-07-03T19:21:59.794Z,23.10
2018-07-03T19:24:33.793Z,23.20
2018-07-03T19:27:02.829Z,23.20
2018-07-03T19:29:32.095Z,23.00
2018-07-03T19:32:12.578Z,23.10
2018-07-03T19:34:42.586Z,23.00
2018-07-03T19:37:15.810Z,23.00
2018-07-03T19:39:45.125Z,22.90
2018-07-03T19:42:13.898Z,22.80
2018-07-03T19:44:42.882Z,22.80
2018-07-03T19:47:11.799Z,22.70
2018-07-03T19:49:40.587Z,22.70
2018-07-03T19:52:10.199Z,22.60
2018-07-03T19:54:39.092Z,22.60
2018-07-03T19:57:07.963Z,22.60
2018-07-03T19:59:37.073Z,22.50
2018-07-03T20:02:06.547Z,22.50
2018-07-03T20:04:35.586Z,22.50
2018-07-03T20:07:06.326Z,22.40
2018-07-03T20:09:35.046Z,22.40
2018-07-03T20:12:04.407Z,22.40
2018-07-03T20:14:33.877Z,22.30
2018-07-03T20:17:03.756Z,22.30
2018-07-03T20:19:33.168Z,22.30
2018-07-03T20:22:02.272Z,22.20
2018-07-03T20:24:31.700Z,22.20
2018-07-03T20:27:02.985Z,22.20
2018-07-03T20:29:32.480Z,22.20
2018-07-03T20:32:01.210Z,22.10
2018-07-03T20:34:31.087Z,22.10
2018-07-03T20:37:00.150Z,22.10
2018-07-03T20:39:28.940Z,22.10
2018-07-03T20:41:57.648Z,22.10
2018-07-03T20:44:28.544Z,22.10
2018-07-03T20:46:57.265Z,22.00
2018-07-03T20:49:26.173Z,22.00
2018-07-03T20:51:55.244Z,22.00
2018-07-03T20:54:23.716Z,21.90
2018-07-03T20:56:53.640Z,21.90
2018-07-03T20:59:27.961Z,21.90
2018-07-03T21:02:00.645Z,21.90
2018-07-03T21:04:31.312Z,21.80
2018-07-03T21:07:02.038Z,21.80
2018-07-03T21:09:31.110Z,21.80
2018-07-03T21:12:00.619Z,21.80
2018-07-03T21:14:29.745Z,21.80
2018-07-03T21:16:58.558Z,21.80
2018-07-03T21:19:27.657Z,21.80
2018-07-03T21:21:57.067Z,21.70
2018-07-03T21:24:25.892Z,21.70
2018-07-03T21:26:54.743Z,21.70
2018-07-03T21:29:23.316Z,21.60
2018-07-03T21:31:53.150Z,21.60
2018-07-03T21:34:21.760Z,21.60
2018-07-03T21:36:50.608Z,21.60
2018-07-03T21:39:19.270Z,21.50
2018-07-03T21:41:47.807Z,21.50
2018-07-03T21:46:44.876Z,21.40
2018-07-03T21:49:13.459Z,21.40
2018-07-03T21:51:42.279Z,21.40
2018-07-03T21:54:11.305Z,21.40
2018-07-03T21:56:39.845Z,21.30
2018-07-03T21:59:08.673Z,21.30
2018-07-03T22:01:39.784Z,21.20
2018-07-03T22:04:09.047Z,21.20
2018-07-03T22:06:39.682Z,21.20
2018-07-03T22:09:10.996Z,21.10
2018-07-03T22:11:39.630Z,21.10
2018-07-03T22:14:08.180Z,21.10
2018-07-03T22:16:36.751Z,21.10
2018-07-03T22:19:06.069Z,21.10
2018-07-03T22:21:35.260Z,21.10
2018-07-03T22:24:03.967Z,21.10
2018-07-03T22:26:32.515Z,21.10
2018-07-03T22:29:03.017Z,21.00
2018-07-03T22:31:32.182Z,21.00
2018-07-03T22:34:00.885Z,21.00
2018-07-03T22:36:29.832Z,21.00
2018-07-03T22:38:58.443Z,21.00
2018-07-03T22:41:27.419Z,21.00
2018-07-03T22:43:55.933Z,20.90
2018-07-03T22:46:24.761Z,20.90
2018-07-03T22:48:53.912Z,20.90
2018-07-03T22:51:22.530Z,20.90
2018-07-03T22:53:52.092Z,20.90
2018-07-03T22:56:20.880Z,20.90
2018-07-03T22:58:49.568Z,20.90
2018-07-03T23:01:18.499Z,20.90
2018-07-03T23:03:47.491Z,20.90
2018-07-03T23:06:19.026Z,20.90
2018-07-03T23:08:47.410Z,20.80
2018-07-03T23:11:16.232Z,20.80
2018-07-03T23:13:44.872Z,20.80
2018-07-03T23:16:13.491Z,20.80
2018-07-03T23:18:42.169Z,20.80
2018-07-03T23:23:39.181Z,20.80
2018-07-03T23:26:08.028Z,20.80
2018-07-03T23:28:37.098Z,20.70
2018-07-03T23:31:05.816Z,20.70
2018-07-03T23:33:34.239Z,20.70
2018-07-03T23:36:02.959Z,20.70
2018-07-03T23:41:00.548Z,20.70
2018-07-03T23:43:30.375Z,20.70
2018-07-03T23:45:59.842Z,20.70
2018-07-03T23:48:39.687Z,20.60
2018-07-03T23:51:20.913Z,20.60
2018-07-03T23:54:00.679Z,20.60
2018-07-03T23:56:40.824Z,20.60
2018-07-03T23:59:20.640Z,20.60
